Maersk Dispatcher — XJAJ — position and weather

sailwx.info

Track history (hours):
 
Tides and Currents Weather Stations Pressure Air Temp Water Temp Dewpoint Dewpoint Depression Visibility Wind Speed Wind Dir Waves Ship Positions

Maersk Dispatcher

Last reported at 2014-Nov-27 23:15 UTC. Time now 2014-Nov-29 01:23 UTC.
Position N 47°34' W 052°42'.

Length 89 m; draft 6.8 m.

Type: Other ship. MMSI: 316013080.

Date/timePositionNaut miles runAvg speedWind from/ knotsBaromVisibWave heightAir tempDewpointWater temp
2014-Nov-27 23:15N 47°34' W 052°42'0 0.0
2014-Nov-27 22:33N 47°34' W 052°42'0 0.0
2014-Nov-27 21:21N 47°34' W 052°42'0 0.0
2014-Nov-27 20:27N 47°34' W 052°42'0 0.0
2014-Nov-27 19:24N 47°34' W 052°42'0 0.0
2014-Nov-27 18:31N 47°34' W 052°42'7 7.1
2014-Nov-27 17:30N 47°33' W 052°32'1514.5
2014-Nov-27 16:30N 47°30' W 052°10'  
2014-Nov-20 15:24N 47°32' W 052°23'1314.2
2014-Nov-20 14:30N 47°34' W 052°41'9 2.2
2014-Nov-20 10:32N 47°26' W 052°37'4 0.5
2014-Nov-20 01:22N 47°22' W 052°39'1113.4
2014-Nov-20 00:31N 47°33' W 052°36'4 4.1
2014-Nov-19 23:30N 47°34' W 052°42'0 0.0
2014-Nov-19 22:33N 47°34' W 052°42'0 0.0
2014-Nov-19 21:33N 47°34' W 052°42'0 0.0
2014-Nov-19 20:18N 47°34' W 052°42'0 0.0
2014-Nov-19 19:30N 47°34' W 052°42'0 0.0
2014-Nov-19 18:32N 47°34' W 052°42'0 0.2
2014-Nov-19 17:32N 47°34' W 052°42'9 8.5
2014-Nov-19 16:29N 47°35' W 052°29'6 5.5
2014-Nov-19 15:21N 47°34' W 052°20'0 0.4
2014-Nov-19 14:27N 47°34' W 052°19'7 7.6
2014-Nov-19 13:33N 47°34' W 052°29'9 2.6
2014-Nov-19 10:16N 47°34' W 052°42'0 0.0
2014-Nov-19 07:16N 47°34' W 052°42'0 0.0
2014-Nov-19 06:13N 47°34' W 052°42'0 0.0
2014-Nov-19 04:28N 47°34' W 052°42'0 0.0
2014-Nov-19 03:28N 47°34' W 052°42'0 0.0
2014-Nov-19 02:19N 47°34' W 052°42'0 0.0
2014-Nov-19 01:28N 47°34' W 052°42'0 0.0
2014-Nov-19 00:19N 47°34' W 052°42'0 0.0
2014-Nov-18 23:28N 47°34' W 052°42'0 0.0
2014-Nov-18 22:31N 47°34' W 052°42'0 0.0
2014-Nov-18 21:25N 47°34' W 052°42'0 0.0
2014-Nov-18 20:28N 47°34' W 052°42'0 0.4
2014-Nov-18 19:22N 47°34' W 052°42'0 0.0
2014-Nov-18 18:28N 47°34' W 052°42'0 0.0
2014-Nov-18 17:28N 47°34' W 052°42'0 0.0
2014-Nov-18 16:22N 47°34' W 052°42'4 4.4
2014-Nov-18 15:29N 47°33' W 052°36'1111.8
2014-Nov-18 14:33N 47°31' W 052°21'  
Track history (hours):
 
Tides and Currents Weather Stations Pressure Air Temp Water Temp Dewpoint Dewpoint Depression Visibility Wind Speed Wind Dir Waves Ship Positions

Maersk Dispatcher

Last reported at 2014-Nov-27 23:15 UTC. Time now 2014-Nov-29 01:23 UTC.
Position N 47°34' W 052°42'.

Length 89 m; draft 6.8 m.

Type: Other ship. MMSI: 316013080.

Date/timePositionNaut miles runAvg speedWind from/ knotsBaromVisibWave heightAir tempDewpointWater temp
2014-Nov-27 23:15N 47°34' W 052°42'0 0.0
2014-Nov-27 22:33N 47°34' W 052°42'0 0.0
2014-Nov-27 21:21N 47°34' W 052°42'0 0.0
2014-Nov-27 20:27N 47°34' W 052°42'0 0.0
2014-Nov-27 19:24N 47°34' W 052°42'0 0.0
2014-Nov-27 18:31N 47°34' W 052°42'7 7.1
2014-Nov-27 17:30N 47°33' W 052°32'1514.5
2014-Nov-27 16:30N 47°30' W 052°10'  
2014-Nov-20 15:24N 47°32' W 052°23'1314.2
2014-Nov-20 14:30N 47°34' W 052°41'9 2.2
2014-Nov-20 10:32N 47°26' W 052°37'4 0.5
2014-Nov-20 01:22N 47°22' W 052°39'1113.4
2014-Nov-20 00:31N 47°33' W 052°36'4 4.1
2014-Nov-19 23:30N 47°34' W 052°42'0 0.0
2014-Nov-19 22:33N 47°34' W 052°42'0 0.0
2014-Nov-19 21:33N 47°34' W 052°42'0 0.0
2014-Nov-19 20:18N 47°34' W 052°42'0 0.0
2014-Nov-19 19:30N 47°34' W 052°42'0 0.0
2014-Nov-19 18:32N 47°34' W 052°42'0 0.2
2014-Nov-19 17:32N 47°34' W 052°42'9 8.5
2014-Nov-19 16:29N 47°35' W 052°29'6 5.5
2014-Nov-19 15:21N 47°34' W 052°20'0 0.4
2014-Nov-19 14:27N 47°34' W 052°19'7 7.6
2014-Nov-19 13:33N 47°34' W 052°29'9 2.6
2014-Nov-19 10:16N 47°34' W 052°42'0 0.0
2014-Nov-19 07:16N 47°34' W 052°42'0 0.0
2014-Nov-19 06:13N 47°34' W 052°42'0 0.0
2014-Nov-19 04:28N 47°34' W 052°42'0 0.0
2014-Nov-19 03:28N 47°34' W 052°42'0 0.0
2014-Nov-19 02:19N 47°34' W 052°42'0 0.0
2014-Nov-19 01:28N 47°34' W 052°42'0 0.0
2014-Nov-19 00:19N 47°34' W 052°42'0 0.0
2014-Nov-18 23:28N 47°34' W 052°42'0 0.0
2014-Nov-18 22:31N 47°34' W 052°42'0 0.0
2014-Nov-18 21:25N 47°34' W 052°42'0 0.0
2014-Nov-18 20:28N 47°34' W 052°42'0 0.4
2014-Nov-18 19:22N 47°34' W 052°42'0 0.0
2014-Nov-18 18:28N 47°34' W 052°42'0 0.0
2014-Nov-18 17:28N 47°34' W 052°42'0 0.0
2014-Nov-18 16:22N 47°34' W 052°42'4 4.4
2014-Nov-18 15:29N 47°33' W 052°36'1111.8
2014-Nov-18 14:33N 47°31' W 052°21'  

Dump ship's entire track history